Time;durP1;ratioP1;P1;durP2;ratioP2;P2;SDS_P1;SDS_P2;PMS_P1;PMS_P2;Temp;Humidity;BMP_temperature;BMP_pressure;BME280_temperature;BME280_humidity;BME280_pressure;Samples;Min_cycle;Max_cycle;Signal;HPM_P1;HPM_P2
2022/07/17 00:00:47;;;;;;;3.70;2.60;;;16.90;99.90;;;;;;5268131;28;20047;-71
2022/07/17 00:03:18;;;;;;;4.15;2.35;;;16.90;99.90;;;;;;5268390;28;20028;-72
2022/07/17 00:05:49;;;;;;;4.10;2.88;;;16.80;99.90;;;;;;5268461;28;20360;-75
2022/07/17 00:08:20;;;;;;;4.57;2.53;;;17.00;99.90;;;;;;5268299;28;20050;-72
2022/07/17 00:10:51;;;;;;;5.95;2.60;;;17.00;99.90;;;;;;5268289;28;20028;-71
2022/07/17 00:13:22;;;;;;;3.65;2.10;;;17.00;99.90;;;;;;5268112;28;20552;-71
2022/07/17 00:15:53;;;;;;;5.38;2.65;;;16.70;99.90;;;;;;5268233;28;20032;-72
2022/07/17 00:18:24;;;;;;;2.70;2.50;;;16.70;99.90;;;;;;5268079;28;20097;-72
2022/07/17 00:20:54;;;;;;;3.03;2.65;;;16.50;99.90;;;;;;5268243;28;20023;-72
2022/07/17 00:23:25;;;;;;;3.40;2.53;;;16.60;99.90;;;;;;5268263;28;20058;-71
2022/07/17 00:25:56;;;;;;;2.70;2.40;;;16.70;99.90;;;;;;5268369;28;20016;-72
2022/07/17 00:28:27;;;;;;;3.30;2.30;;;17.00;99.90;;;;;;5268441;28;20031;-78
2022/07/17 00:30:58;;;;;;;4.25;2.78;;;17.00;99.90;;;;;;5268429;28;20034;-72
2022/07/17 00:33:29;;;;;;;3.53;2.95;;;16.80;99.90;;;;;;5268217;28;20032;-72
2022/07/17 00:36:00;;;;;;;3.47;2.47;;;16.60;99.90;;;;;;5268117;28;20036;-71
2022/07/17 00:38:31;;;;;;;2.67;2.03;;;16.80;99.90;;;;;;5266732;28;20047;-72
2022/07/17 00:41:02;;;;;;;4.15;2.60;;;17.00;99.90;;;;;;5268027;28;20063;-71
2022/07/17 00:43:32;;;;;;;3.55;3.05;;;16.40;99.90;;;;;;5268085;28;20062;-71
2022/07/17 00:46:03;;;;;;;3.53;2.40;;;16.50;99.90;;;;;;5267949;28;20085;-72
2022/07/17 00:48:34;;;;;;;3.72;2.63;;;16.70;99.90;;;;;;5267891;28;20103;-72
2022/07/17 00:51:05;;;;;;;3.60;2.13;;;16.80;99.90;;;;;;5267995;28;20020;-72
2022/07/17 00:53:37;;;;;;;3.72;2.47;;;16.90;99.90;;;;;;5267777;28;20519;-72
2022/07/17 00:56:08;;;;;;;3.92;2.30;;;16.30;99.90;;;;;;5267818;28;20112;-71
2022/07/17 00:58:39;;;;;;;3.38;2.78;;;16.50;99.90;;;;;;5267964;28;20454;-71
2022/07/17 01:01:10;;;;;;;5.53;2.85;;;16.10;99.90;;;;;;5267511;28;20066;-71
2022/07/17 01:03:41;;;;;;;3.28;2.50;;;16.10;99.90;;;;;;5267821;28;20016;-71
2022/07/17 01:06:12;;;;;;;4.30;2.30;;;16.40;99.90;;;;;;5267785;28;20081;-71
2022/07/17 01:08:43;;;;;;;5.78;2.83;;;16.40;99.90;;;;;;5271470;28;20055;-72
2022/07/17 01:11:14;;;;;;;4.40;3.00;;;16.20;99.90;;;;;;5271742;28;20032;-72
2022/07/17 01:13:45;;;;;;;3.60;2.83;;;16.00;99.90;;;;;;5270348;28;20023;-72
2022/07/17 01:16:16;;;;;;;3.92;2.60;;;16.50;99.90;;;;;;5271636;28;20035;-72
2022/07/17 01:18:47;;;;;;;4.45;2.55;;;16.50;99.90;;;;;;5271696;28;20039;-71
2022/07/17 01:21:17;;;;;;;4.78;2.65;;;16.60;99.90;;;;;;5271509;28;20105;-72
2022/07/17 01:23:48;;;;;;;4.93;2.30;;;16.70;99.90;;;;;;5271392;28;20468;-72
2022/07/17 01:26:19;;;;;;;4.90;3.08;;;16.80;99.90;;;;;;5271381;28;20077;-71
2022/07/17 01:28:50;;;;;;;2.95;2.60;;;16.30;99.90;;;;;;5271268;28;20463;-71
2022/07/17 01:31:21;;;;;;;2.50;2.30;;;16.40;99.90;;;;;;5271117;28;20035;-74
2022/07/17 01:33:52;;;;;;;5.20;2.60;;;16.60;99.90;;;;;;5271190;28;20503;-71
2022/07/17 01:36:24;;;;;;;4.75;2.60;;;16.60;99.90;;;;;;5271280;28;20028;-71
2022/07/17 01:38:56;;;;;;;3.15;2.58;;;16.60;99.90;;;;;;5271105;28;20115;-72
2022/07/17 01:41:27;;;;;;;2.88;2.40;;;16.50;99.90;;;;;;5271101;28;20027;-72
2022/07/17 01:43:58;;;;;;;3.25;2.42;;;16.50;99.90;;;;;;5271159;28;20471;-72
2022/07/17 01:46:29;;;;;;;3.50;2.65;;;16.20;99.90;;;;;;5271185;28;20020;-71
2022/07/17 01:49:03;;;;;;;5.43;2.65;;;16.20;99.90;;;;;;5270884;28;20028;-75
2022/07/17 01:51:33;;;;;;;6.07;2.95;;;16.30;99.90;;;;;;5270922;28;20103;-71
2022/07/17 01:54:04;;;;;;;4.15;2.50;;;16.20;99.90;;;;;;5270687;28;20095;-71
2022/07/17 01:56:35;;;;;;;3.92;2.13;;;16.30;99.90;;;;;;5270735;28;20028;-72
2022/07/17 01:59:06;;;;;;;2.88;2.17;;;16.50;99.90;;;;;;5270840;28;20029;-71
2022/07/17 02:01:37;;;;;;;3.33;2.80;;;16.50;99.90;;;;;;5270348;28;20075;-72
2022/07/17 02:04:07;;;;;;;2.63;2.30;;;16.20;99.90;;;;;;5269326;28;20043;-71
2022/07/17 02:06:38;;;;;;;4.07;2.45;;;16.20;99.90;;;;;;5269380;28;20032;-71
2022/07/17 02:09:09;;;;;;;3.70;3.15;;;16.10;99.90;;;;;;5269239;28;20024;-71
2022/07/17 02:11:40;;;;;;;4.43;3.15;;;15.80;99.90;;;;;;5270557;28;20062;-72
2022/07/17 02:14:11;;;;;;;3.17;2.70;;;15.80;99.90;;;;;;5270202;28;20510;-71
2022/07/17 02:16:42;;;;;;;2.90;2.70;;;16.10;99.90;;;;;;5270560;28;20101;-72
2022/07/17 02:19:13;;;;;;;4.05;2.60;;;16.20;99.90;;;;;;5270035;28;20016;-78
2022/07/17 02:21:43;;;;;;;3.60;2.70;;;16.10;99.90;;;;;;5270262;28;20035;-71
2022/07/17 02:24:14;;;;;;;5.88;2.58;;;16.10;99.90;;;;;;5270189;28;20020;-71
2022/07/17 02:26:45;;;;;;;3.80;2.38;;;16.30;99.90;;;;;;5270253;28;20030;-71
2022/07/17 02:29:16;;;;;;;2.72;2.42;;;16.30;99.90;;;;;;5270149;28;20376;-71
2022/07/17 02:31:47;;;;;;;3.25;2.53;;;16.30;99.90;;;;;;5270046;28;20176;-74
2022/07/17 02:34:18;;;;;;;3.00;2.60;;;16.30;99.90;;;;;;5269935;28;20032;-72
2022/07/17 02:36:48;;;;;;;3.05;2.78;;;16.20;99.90;;;;;;5269977;28;20024;-71
2022/07/17 02:39:19;;;;;;;6.40;2.35;;;16.00;99.90;;;;;;5270010;28;20023;-71
2022/07/17 02:41:50;;;;;;;5.07;2.80;;;16.30;99.90;;;;;;5269964;28;20730;-71
2022/07/17 02:44:21;;;;;;;6.10;2.72;;;15.90;99.90;;;;;;5269854;28;20020;-72
2022/07/17 02:46:51;;;;;;;3.15;2.67;;;16.00;99.90;;;;;;5269829;28;20730;-71
2022/07/17 02:49:22;;;;;;;5.05;3.03;;;16.00;99.90;;;;;;5269676;28;20075;-72
2022/07/17 02:51:53;;;;;;;3.97;2.55;;;16.00;99.90;;;;;;5269757;28;20070;-72
2022/07/17 02:54:24;;;;;;;2.50;2.30;;;16.20;99.90;;;;;;5269361;28;20039;-76
2022/07/17 02:56:55;;;;;;;3.67;2.60;;;16.10;99.90;;;;;;5269540;28;20487;-71
2022/07/17 02:59:25;;;;;;;6.38;2.63;;;15.80;99.90;;;;;;5269549;28;20364;-72
2022/07/17 03:01:56;;;;;;;3.17;2.58;;;15.90;99.90;;;;;;5269253;28;20040;-71
2022/07/17 03:04:27;;;;;;;3.58;2.40;;;16.10;99.90;;;;;;5269076;28;20024;-71
2022/07/17 03:06:58;;;;;;;4.05;3.10;;;16.30;99.90;;;;;;5268139;28;20107;-71
2022/07/17 03:09:29;;;;;;;5.43;2.63;;;16.00;99.90;;;;;;5269395;28;20028;-72
2022/07/17 03:11:59;;;;;;;9.93;3.00;;;16.00;99.90;;;;;;5269384;28;20103;-72
2022/07/17 03:14:30;;;;;;;4.80;2.40;;;15.90;99.90;;;;;;5269162;28;20082;-72
2022/07/17 03:17:01;;;;;;;4.70;2.90;;;16.00;99.90;;;;;;5269148;28;20437;-73
2022/07/17 03:19:32;;;;;;;4.53;2.97;;;16.20;99.90;;;;;;5269274;28;20103;-72
2022/07/17 03:22:03;;;;;;;3.30;2.80;;;16.10;99.90;;;;;;5269253;28;20081;-71
2022/07/17 03:24:33;;;;;;;4.75;3.10;;;16.20;99.90;;;;;;5268940;28;20028;-71
2022/07/17 03:27:04;;;;;;;5.00;2.55;;;15.90;99.90;;;;;;5267928;28;20020;-71
2022/07/17 03:29:35;;;;;;;5.28;2.95;;;16.10;99.90;;;;;;5268408;28;20038;-72
2022/07/17 03:32:06;;;;;;;3.60;2.92;;;16.00;99.90;;;;;;5269049;28;20032;-71
2022/07/17 03:34:38;;;;;;;7.35;2.95;;;16.20;99.90;;;;;;5268846;28;20393;-72
2022/07/17 03:37:09;;;;;;;4.80;2.97;;;16.30;99.90;;;;;;5268807;28;20036;-71
2022/07/17 03:39:40;;;;;;;6.55;3.30;;;16.20;99.90;;;;;;5268782;28;20058;-72
2022/07/17 03:42:10;;;;;;;5.82;3.20;;;16.20;99.90;;;;;;5268655;28;20073;-72
2022/07/17 03:44:41;;;;;;;4.95;2.97;;;16.60;99.90;;;;;;5268612;28;20031;-72
2022/07/17 03:47:12;;;;;;;4.60;3.30;;;16.40;99.90;;;;;;5268909;28;20031;-73
2022/07/17 03:49:43;;;;;;;14.00;3.53;;;16.40;99.90;;;;;;5268580;28;20383;-72
2022/07/17 03:52:14;;;;;;;4.95;3.17;;;16.60;99.90;;;;;;5268579;28;20012;-71
2022/07/17 03:54:44;;;;;;;3.38;2.80;;;16.30;99.90;;;;;;5268433;28;20455;-71
2022/07/17 03:57:15;;;;;;;4.93;2.85;;;16.70;99.90;;;;;;5268653;28;20060;-72
2022/07/17 03:59:46;;;;;;;4.13;2.92;;;16.70;99.90;;;;;;5268387;28;20016;-72
2022/07/17 04:02:17;;;;;;;3.28;2.97;;;16.90;99.90;;;;;;5268407;28;20071;-71
2022/07/17 04:04:48;;;;;;;10.48;3.72;;;16.80;99.90;;;;;;5268503;28;20032;-72
2022/07/17 04:07:27;;;;;;;4.80;3.17;;;16.70;99.90;;;;;;5268280;28;20035;-72
2022/07/17 04:09:59;;;;;;;5.32;3.15;;;16.70;99.90;;;;;;5268340;28;20356;-72
2022/07/17 04:12:29;;;;;;;4.03;2.95;;;16.90;99.90;;;;;;5268157;28;20081;-72
2022/07/17 04:15:00;;;;;;;3.92;3.15;;;16.80;99.90;;;;;;5268380;28;20036;-72
2022/07/17 04:17:31;;;;;;;3.72;3.30;;;17.10;99.90;;;;;;5268317;28;20027;-72
2022/07/17 04:20:03;;;;;;;6.38;3.47;;;16.70;99.90;;;;;;5268159;28;20020;-72
2022/07/17 04:22:34;;;;;;;3.75;3.33;;;17.10;99.90;;;;;;5268238;28;20028;-72
2022/07/17 04:25:05;;;;;;;4.57;2.88;;;17.20;99.90;;;;;;5268169;28;20073;-72
2022/07/17 04:27:36;;;;;;;4.68;3.03;;;17.60;99.90;;;;;;5268217;28;20020;-72
2022/07/17 04:30:07;;;;;;;5.60;3.97;;;17.80;99.90;;;;;;5267937;28;20509;-71
2022/07/17 04:32:38;;;;;;;6.10;2.92;;;17.50;99.90;;;;;;5268022;28;20054;-72
2022/07/17 04:35:09;;;;;;;4.25;3.45;;;17.80;99.90;;;;;;5268048;28;20403;-76
2022/07/17 04:37:40;;;;;;;4.55;3.72;;;17.60;99.90;;;;;;5268003;28;20027;-72
2022/07/17 04:40:11;;;;;;;8.00;2.92;;;17.70;99.90;;;;;;5268111;28;20032;-72
2022/07/17 04:42:42;;;;;;;5.60;3.60;;;18.30;99.90;;;;;;5270065;28;20052;-72
2022/07/17 04:45:13;;;;;;;3.83;2.85;;;18.20;99.90;;;;;;5272339;28;20089;-73
2022/07/17 04:47:44;;;;;;;2.95;2.70;;;18.30;99.90;;;;;;5270879;28;20024;-71
2022/07/17 04:50:15;;;;;;;5.65;2.90;;;18.70;99.90;;;;;;5270959;28;20027;-72
2022/07/17 04:52:46;;;;;;;2.88;2.67;;;18.50;99.90;;;;;;5272013;28;20024;-72
2022/07/17 04:55:17;;;;;;;3.85;3.10;;;18.80;99.90;;;;;;5271857;28;20055;-72
2022/07/17 04:57:48;;;;;;;6.03;2.90;;;19.10;99.90;;;;;;5272096;28;20032;-72
2022/07/17 05:00:18;;;;;;;4.18;2.50;;;19.30;99.90;;;;;;5271739;28;20079;-73
2022/07/17 05:02:49;;;;;;;3.63;2.33;;;19.60;99.90;;;;;;5271894;28;20417;-72
2022/07/17 05:05:20;;;;;;;4.95;2.38;;;19.60;99.90;;;;;;5271986;28;20032;-72
2022/07/17 05:07:51;;;;;;;6.85;2.85;;;19.80;99.90;;;;;;5271773;28;20032;-72
2022/07/17 05:10:22;;;;;;;4.28;2.70;;;19.80;99.90;;;;;;5271887;28;20031;-72
2022/07/17 05:12:53;;;;;;;4.78;2.97;;;19.90;99.90;;;;;;5271704;28;20736;-72
2022/07/17 05:15:24;;;;;;;3.85;2.83;;;20.30;99.90;;;;;;5271642;28;20031;-72
2022/07/17 05:17:55;;;;;;;3.90;2.58;;;20.60;99.90;;;;;;5271680;28;20091;-72
2022/07/17 05:20:26;;;;;;;3.97;2.50;;;20.90;99.90;;;;;;5271468;28;20372;-72
2022/07/17 05:22:57;;;;;;;5.20;2.33;;;21.10;99.90;;;;;;5271589;28;20024;-74
2022/07/17 05:25:28;;;;;;;3.55;2.03;;;21.30;99.90;;;;;;5270190;28;20028;-72
2022/07/17 05:27:59;;;;;;;3.78;2.28;;;21.30;99.90;;;;;;5271380;28;20486;-72
2022/07/17 05:30:30;;;;;;;3.78;2.45;;;21.60;99.90;;;;;;5271360;28;20034;-72
2022/07/17 05:33:01;;;;;;;3.95;2.58;;;21.80;99.90;;;;;;5271488;28;20024;-72
2022/07/17 05:35:32;;;;;;;4.35;2.00;;;22.10;99.90;;;;;;5271221;28;20035;-73
2022/07/17 05:38:02;;;;;;;4.55;2.25;;;22.50;99.90;;;;;;5271293;28;20365;-72
2022/07/17 05:40:33;;;;;;;6.80;2.38;;;22.60;99.90;;;;;;5271351;28;20426;-73
2022/07/17 05:43:04;;;;;;;4.25;2.40;;;23.00;99.90;;;;;;5271276;28;20023;-72
2022/07/17 05:45:35;;;;;;;6.43;2.30;;;23.20;99.90;;;;;;5271045;28;20460;-72
2022/07/17 05:48:06;;;;;;;5.15;2.25;;;23.40;99.90;;;;;;5271043;28;20021;-72
2022/07/17 05:50:37;;;;;;;11.52;4.70;;;23.60;99.90;;;;;;5270947;28;20099;-72
2022/07/17 05:53:08;;;;;;;12.00;6.60;;;23.60;99.90;;;;;;5270408;28;20107;-72
2022/07/17 05:55:39;;;;;;;20.75;11.60;;;23.70;99.90;;;;;;5270646;28;20036;-72
2022/07/17 05:58:10;;;;;;;21.38;9.95;;;24.10;99.90;;;;;;5270663;28;20020;-72
2022/07/17 06:00:41;;;;;;;17.10;8.68;;;24.40;99.90;;;;;;5270579;28;20040;-72
2022/07/17 06:03:12;;;;;;;14.05;7.35;;;24.40;99.90;;;;;;5270932;28;20024;-71
2022/07/17 06:05:42;;;;;;;11.15;5.68;;;24.60;99.90;;;;;;5270774;28;20020;-72
2022/07/17 06:08:13;;;;;;;8.50;4.28;;;24.60;99.90;;;;;;5270623;28;20036;-73
2022/07/17 06:10:44;;;;;;;8.07;4.32;;;24.70;99.90;;;;;;5270639;28;20036;-78
2022/07/17 06:13:15;;;;;;;11.65;4.75;;;24.80;99.90;;;;;;5270549;28;20397;-73
2022/07/17 06:15:46;;;;;;;8.13;3.72;;;25.30;99.90;;;;;;5270540;28;20072;-72
2022/07/17 06:18:17;;;;;;;7.72;3.97;;;25.10;99.90;;;;;;5270465;28;20020;-78
2022/07/17 06:20:47;;;;;;;4.53;2.60;;;25.00;99.90;;;;;;5270440;28;20038;-72
2022/07/17 06:23:18;;;;;;;6.38;2.65;;;25.00;99.90;;;;;;5270385;28;20023;-72
2022/07/17 06:25:49;;;;;;;8.13;3.30;;;25.00;99.90;;;;;;5270292;28;20097;-72
2022/07/17 06:28:20;;;;;;;5.60;3.38;;;25.20;99.90;;;;;;5270152;28;20476;-72
2022/07/17 06:30:51;;;;;;;6.72;2.15;;;25.40;99.90;;;;;;5270223;28;20040;-72
2022/07/17 06:33:22;;;;;;;4.15;1.52;;;25.60;99.90;;;;;;5270026;28;20103;-74
2022/07/17 06:35:52;;;;;;;5.45;1.90;;;25.60;99.90;;;;;;5270087;28;20115;-72
2022/07/17 06:38:23;;;;;;;3.92;2.00;;;25.60;99.90;;;;;;5269992;28;20081;-72
2022/07/17 06:40:54;;;;;;;6.45;2.08;;;25.60;99.90;;;;;;5270033;28;20024;-72
2022/07/17 06:43:25;;;;;;;6.32;3.13;;;25.70;99.90;;;;;;5269951;28;20111;-73
2022/07/17 06:45:56;;;;;;;3.53;1.83;;;26.00;99.90;;;;;;5269902;28;20028;-72
2022/07/17 06:48:26;;;;;;;4.03;1.70;;;26.00;99.90;;;;;;5269808;28;20051;-72
2022/07/17 06:50:57;;;;;;;8.02;3.35;;;25.70;99.90;;;;;;5269897;28;20024;-75
2022/07/17 06:53:28;;;;;;;8.10;2.40;;;25.80;99.90;;;;;;5269735;28;20432;-72
2022/07/17 06:55:59;;;;;;;4.05;1.70;;;26.00;99.90;;;;;;5269630;28;20043;-73
2022/07/17 06:58:29;;;;;;;5.45;1.40;;;26.00;99.90;;;;;;5269652;28;20043;-72
2022/07/17 07:01:00;;;;;;;2.10;1.20;;;26.30;99.90;;;;;;5268136;28;20044;-73
2022/07/17 07:03:31;;;;;;;7.05;1.20;;;26.40;99.90;;;;;;5269665;28;20030;-72
2022/07/17 07:06:02;;;;;;;4.05;1.45;;;26.10;99.90;;;;;;5268553;28;20031;-78
2022/07/17 07:08:34;;;;;;;5.75;1.80;;;26.30;99.90;;;;;;5269402;28;20040;-72
2022/07/17 07:11:05;;;;;;;3.97;1.30;;;26.40;99.90;;;;;;5269348;28;20020;-72
2022/07/17 07:13:36;;;;;;;4.68;1.58;;;26.40;99.90;;;;;;5269361;28;20024;-73
2022/07/17 07:16:07;;;;;;;13.07;2.13;;;26.60;99.90;;;;;;5269114;28;20036;-73
2022/07/17 07:18:37;;;;;;;6.85;2.10;;;26.60;99.90;;;;;;5269329;28;20052;-72
2022/07/17 07:21:08;;;;;;;5.05;2.42;;;26.80;99.90;;;;;;5269252;28;20020;-72
2022/07/17 07:23:40;;;;;;;5.55;1.63;;;26.90;99.90;;;;;;5269250;28;20020;-72
2022/07/17 07:26:10;;;;;;;9.43;1.70;;;27.10;99.90;;;;;;5268948;28;20110;-72
2022/07/17 07:28:41;;;;;;;4.00;1.83;;;27.20;99.90;;;;;;5269080;28;20107;-73
2022/07/17 07:31:12;;;;;;;8.48;1.77;;;27.00;99.90;;;;;;5268933;28;20043;-73
2022/07/17 07:33:44;;;;;;;3.67;1.45;;;27.00;99.90;;;;;;5269104;28;20070;-72
2022/07/17 07:36:15;;;;;;;5.72;1.60;;;27.10;99.90;;;;;;5268896;28;20023;-72
2022/07/17 07:38:46;;;;;;;3.90;1.40;;;26.90;99.90;;;;;;5268919;28;20028;-72
2022/07/17 07:41:16;;;;;;;3.50;1.38;;;26.90;99.90;;;;;;5268714;28;20025;-76
2022/07/17 07:43:47;;;;;;;2.42;1.00;;;27.10;99.90;;;;;;5268816;28;20395;-75
2022/07/17 07:46:18;;;;;;;4.00;1.30;;;27.20;99.90;;;;;;5268657;28;20028;-72
2022/07/17 07:48:49;;;;;;;3.17;1.10;;;27.10;99.90;;;;;;5268783;28;20051;-72
2022/07/17 07:51:20;;;;;;;5.40;1.42;;;27.50;99.90;;;;;;5268805;28;20023;-72
2022/07/17 07:53:50;;;;;;;3.25;1.00;;;27.50;99.90;;;;;;5268594;28;20536;-72
2022/07/17 07:56:21;;;;;;;5.25;1.42;;;27.50;99.90;;;;;;5268475;28;20066;-72
2022/07/17 07:58:52;;;;;;;3.88;1.30;;;27.60;99.90;;;;;;5268643;28;20031;-72
2022/07/17 08:01:23;;;;;;;3.72;1.27;;;27.50;99.90;;;;;;5268342;28;20492;-73
2022/07/17 08:03:54;;;;;;;10.07;1.50;;;27.90;99.90;;;;;;5268388;28;20024;-75
2022/07/17 08:06:25;;;;;;;6.45;1.33;;;27.90;99.90;;;;;;5268475;28;20487;-72
2022/07/17 08:08:55;;;;;;;5.20;1.20;;;27.90;99.90;;;;;;5268496;28;20028;-75
2022/07/17 08:11:26;;;;;;;7.00;1.40;;;27.70;99.90;;;;;;5268403;28;20050;-75
2022/07/17 08:13:57;;;;;;;6.93;1.35;;;27.60;99.90;;;;;;5268300;28;20563;-73
2022/07/17 08:16:28;;;;;;;5.00;1.50;;;27.60;99.90;;;;;;5268020;28;20032;-73
2022/07/17 08:18:59;;;;;;;3.50;1.65;;;27.90;99.90;;;;;;5268265;28;20026;-73
2022/07/17 08:21:30;;;;;;;4.75;1.45;;;28.00;99.90;;;;;;5268354;28;20467;-72
2022/07/17 08:24:01;;;;;;;3.72;1.25;;;27.90;99.90;;;;;;5268170;28;20027;-74
2022/07/17 08:26:32;;;;;;;2.92;1.15;;;27.80;99.90;;;;;;5268230;28;20024;-74
2022/07/17 08:29:02;;;;;;;7.60;1.02;;;27.90;99.90;;;;;;5268129;28;20020;-77
2022/07/17 08:31:33;;;;;;;1.98;1.10;;;27.90;99.90;;;;;;5268130;28;20040;-73
2022/07/17 08:34:04;;;;;;;3.60;1.08;;;28.10;99.90;;;;;;5267986;28;20387;-72
2022/07/17 08:36:35;;;;;;;5.10;1.30;;;28.20;99.90;;;;;;5268088;28;20346;-72
2022/07/17 08:39:07;;;;;;;3.10;1.30;;;28.10;99.90;;;;;;5268127;28;20119;-73
2022/07/17 08:41:38;;;;;;;2.83;0.93;;;28.00;99.90;;;;;;5267981;28;20032;-72
2022/07/17 08:44:09;;;;;;;2.50;1.10;;;28.30;99.90;;;;;;5267955;28;20020;-74
2022/07/17 08:46:40;;;;;;;5.68;1.20;;;28.40;99.90;;;;;;5267949;28;20425;-73
2022/07/17 08:49:13;;;;;;;1.38;0.90;;;28.20;99.90;;;;;;5268058;28;20031;-74
2022/07/17 08:51:44;;;;;;;2.65;1.00;;;28.40;99.90;;;;;;5268077;28;20024;-73
2022/07/17 08:54:16;;;;;;;6.90;1.55;;;28.40;99.90;;;;;;5267884;28;20349;-72
2022/07/17 08:56:47;;;;;;;7.80;3.10;;;28.40;99.90;;;;;;5267933;28;20634;-72
2022/07/17 08:59:17;;;;;;;5.13;2.20;;;28.40;99.90;;;;;;5268031;28;20024;-72
2022/07/17 09:01:48;;;;;;;2.97;1.48;;;28.60;99.90;;;;;;5267629;28;20056;-73
2022/07/17 09:04:19;;;;;;;4.95;1.20;;;28.70;99.90;;;;;;5267814;28;20029;-76
2022/07/17 09:07:00;;;;;;;3.53;1.42;;;28.90;99.90;;;;;;5267818;28;20028;-72
2022/07/17 09:09:33;;;;;;;5.28;1.35;;;28.80;99.90;;;;;;5267808;28;20028;-72
2022/07/17 09:12:04;;;;;;;5.82;1.90;;;28.60;99.90;;;;;;5267690;28;20025;-74
2022/07/17 09:14:39;;;;;;;6.65;2.40;;;28.60;99.90;;;;;;5267683;28;20035;-72
2022/07/17 09:17:11;;;;;;;17.55;6.10;;;28.60;99.90;;;;;;5267649;28;20040;-73
2022/07/17 09:19:47;;;;;;;8.60;4.57;;;28.90;99.90;;;;;;5267692;28;20103;-78
2022/07/17 09:22:22;;;;;;;5.80;3.35;;;29.10;99.90;;;;;;5267714;28;20407;-72
2022/07/17 09:24:55;;;;;;;8.57;4.55;;;28.90;99.90;;;;;;5267663;28;20036;-73
2022/07/17 09:27:33;;;;;;;9.57;4.60;;;28.80;99.90;;;;;;5267675;28;20016;-78
2022/07/17 09:30:11;;;;;;;5.93;2.40;;;29.20;99.90;;;;;;5271400;28;20036;-73
2022/07/17 09:32:42;;;;;;;3.95;1.50;;;29.20;99.90;;;;;;5271431;28;20028;-72
2022/07/17 09:35:13;;;;;;;5.65;1.70;;;28.80;99.90;;;;;;5271239;28;20036;-73
2022/07/17 09:37:44;;;;;;;3.35;1.60;;;29.40;99.90;;;;;;5270295;28;20487;-73
2022/07/17 09:43:04;;;;;;;2.83;1.10;;;29.30;99.90;;;;;;5271333;28;20053;-72
2022/07/17 09:45:36;;;;;;;9.02;1.35;;;29.60;99.90;;;;;;5271234;28;20052;-77
2022/07/17 09:48:09;;;;;;;3.30;1.27;;;29.60;99.90;;;;;;5271262;28;20098;-73
2022/07/17 09:50:41;;;;;;;3.30;1.10;;;29.70;99.90;;;;;;5271108;28;20430;-72
2022/07/17 09:53:13;;;;;;;4.75;1.40;;;29.70;99.90;;;;;;5271064;28;20028;-72
2022/07/17 09:55:44;;;;;;;6.60;1.98;;;29.60;99.90;;;;;;5271222;28;20036;-72
2022/07/17 09:58:19;;;;;;;2.72;1.45;;;29.80;99.90;;;;;;5271197;28;20025;-72
2022/07/17 10:00:50;;;;;;;4.93;1.10;;;29.70;99.90;;;;;;5270712;28;20098;-72
2022/07/17 10:03:22;;;;;;;4.32;2.00;;;29.60;99.90;;;;;;5270955;28;20049;-72
2022/07/17 10:05:52;;;;;;;9.25;5.13;;;29.60;99.90;;;;;;5271217;28;20019;-72
2022/07/17 10:08:24;;;;;;;8.40;2.22;;;29.90;99.90;;;;;;5271131;28;20479;-75
2022/07/17 10:10:55;;;;;;;5.93;2.10;;;29.60;99.90;;;;;;5270947;28;20027;-81
2022/07/17 10:13:26;;;;;;;4.20;1.60;;;29.70;99.90;;;;;;5270717;28;20020;-76
2022/07/17 10:15:58;;;;;;;2.53;1.20;;;29.90;99.90;;;;;;5270641;28;20089;-72
2022/07/17 10:18:43;;;;;;;1.85;1.20;;;29.70;99.90;;;;;;5270894;28;20016;-72
2022/07/17 10:21:18;;;;;;;1.88;1.00;;;29.60;99.90;;;;;;5270699;28;20101;-73
2022/07/17 10:24:07;;;;;;;3.47;1.10;;;29.40;99.90;;;;;;5270531;28;20024;-71
2022/07/17 10:26:43;;;;;;;4.20;1.45;;;29.70;99.90;;;;;;5270548;28;20043;-72
2022/07/17 10:29:33;;;;;;;3.63;1.55;;;29.40;99.90;;;;;;5270463;28;20505;-72
2022/07/17 10:32:25;;;;;;;4.30;1.42;;;29.60;99.90;;;;;;5270465;28;20349;-72
2022/07/17 10:35:07;;;;;;;8.05;1.33;;;29.70;99.90;;;;;;5270512;28;20042;-72
2022/07/17 10:37:40;;;;;;;3.58;1.17;;;29.50;99.90;;;;;;5270322;28;20039;-72
2022/07/17 10:40:25;;;;;;;2.58;1.40;;;29.40;99.90;;;;;;5270329;28;20467;-74
2022/07/17 10:43:01;;;;;;;4.57;1.00;;;29.80;99.90;;;;;;5269015;28;20111;-71
2022/07/17 10:45:42;;;;;;;2.03;1.15;;;29.50;99.90;;;;;;5270197;28;20025;-72
2022/07/17 10:48:19;;;;;;;2.67;1.00;;;29.30;99.90;;;;;;5270254;28;20031;-72
2022/07/17 10:50:53;;;;;;;3.28;1.30;;;29.40;99.90;;;;;;5270114;28;20352;-72
2022/07/17 10:53:32;;;;;;;6.70;1.38;;;29.70;99.90;;;;;;5269744;28;20353;-72
2022/07/17 10:56:05;;;;;;;;;;;29.60;99.90;;;;;;5270125;28;20047;-72
2022/07/17 10:58:40;;;;;;;6.50;1.40;;;29.40;99.90;;;;;;5269689;28;19915;-72
2022/07/17 11:01:16;;;;;;;5.30;1.50;;;29.40;99.90;;;;;;5268116;28;20044;-72
2022/07/17 11:03:50;;;;;;;2.83;1.25;;;29.80;99.90;;;;;;5269453;28;20032;-81
2022/07/17 11:06:30;;;;;;;2.38;1.65;;;29.70;99.90;;;;;;5268265;28;20031;-79
2022/07/17 11:09:11;;;;;;;4.45;1.50;;;29.70;99.90;;;;;;5269540;28;20032;-76
2022/07/17 11:11:51;;;;;;;3.28;2.13;;;29.50;99.90;;;;;;5269375;28;20020;-78
2022/07/17 11:14:24;;;;;;;7.50;2.00;;;29.10;99.90;;;;;;5269217;28;20016;-72
2022/07/17 11:16:56;;;;;;;2.92;1.90;;;29.50;99.90;;;;;;5269180;28;20383;-73
2022/07/17 11:19:35;;;;;;;3.50;1.80;;;29.60;99.90;;;;;;5267968;28;20024;-72
2022/07/17 11:22:09;;;;;;;4.80;2.53;;;28.80;99.90;;;;;;5269255;28;20081;-71
2022/07/17 11:24:41;;;;;;;8.57;2.55;;;29.70;99.90;;;;;;5267635;28;20502;-72
2022/07/17 11:27:25;;;;;;;3.72;2.10;;;29.10;99.90;;;;;;5269033;28;20024;-72
2022/07/17 11:29:59;;;;;;;3.83;2.10;;;29.20;99.90;;;;;;5268878;28;20074;-73
2022/07/17 11:32:35;;;;;;;6.03;2.63;;;29.00;99.90;;;;;;5268076;28;20028;-72
2022/07/17 11:35:20;;;;;;;7.65;2.63;;;29.30;99.90;;;;;;5268850;28;20399;-72
2022/07/17 11:37:50;;;;;;;6.82;2.65;;;29.00;99.90;;;;;;5269072;28;20443;-73
2022/07/17 11:40:22;;;;;;;7.75;2.67;;;29.40;99.90;;;;;;5268674;28;20055;-73
2022/07/17 11:43:04;;;;;;;6.68;2.97;;;29.20;99.90;;;;;;5267623;28;20040;-75
2022/07/17 11:45:35;;;;;;;4.15;2.47;;;29.30;99.90;;;;;;5268755;28;20047;-72
2022/07/17 11:48:08;;;;;;;5.00;2.70;;;29.50;99.90;;;;;;5268628;28;20078;-72
2022/07/17 11:50:39;;;;;;;6.60;2.97;;;29.20;99.90;;;;;;5266934;28;20564;-71
2022/07/17 11:53:09;;;;;;;7.35;2.75;;;28.80;99.90;;;;;;5268447;28;20107;-75
2022/07/17 11:55:41;;;;;;;8.48;2.78;;;29.10;99.90;;;;;;5267204;28;20081;-71
2022/07/17 11:58:12;;;;;;;7.93;3.08;;;29.10;99.90;;;;;;5268701;28;20016;-72
2022/07/17 12:00:43;;;;;;;10.13;2.85;;;29.00;99.90;;;;;;5268234;28;20399;-72
2022/07/17 12:03:14;;;;;;;9.38;3.22;;;29.00;99.90;;;;;;5268515;28;20040;-71
2022/07/17 12:05:45;;;;;;;9.13;3.00;;;29.60;99.90;;;;;;5268515;28;20418;-72
2022/07/17 12:08:22;;;;;;;6.97;3.33;;;29.10;99.90;;;;;;5268460;28;20103;-72
2022/07/17 12:11:09;;;;;;;6.57;3.05;;;29.30;99.90;;;;;;5268367;28;20099;-71
2022/07/17 12:13:47;;;;;;;9.70;4.90;;;29.80;99.90;;;;;;5268252;28;20133;-72
2022/07/17 12:16:26;;;;;;;9.57;5.13;;;29.70;99.90;;;;;;5268192;28;20028;-75
2022/07/17 12:19:03;;;;;;;7.05;3.45;;;29.50;99.90;;;;;;5268211;28;20032;-72
2022/07/17 12:21:55;;;;;;;7.88;4.45;;;29.40;99.90;;;;;;5266959;28;20024;-76
2022/07/17 12:24:30;;;;;;;11.43;5.57;;;29.30;99.90;;;;;;5266423;28;20504;-72
2022/07/17 12:27:04;;;;;;;9.60;4.80;;;29.40;99.90;;;;;;5268015;28;20039;-72
2022/07/17 12:29:35;;;;;;;8.30;4.13;;;28.90;99.90;;;;;;5266875;28;20024;-72
2022/07/17 12:32:11;;;;;;;11.95;3.42;;;29.70;99.90;;;;;;5268119;28;20412;-72
2022/07/17 12:34:47;;;;;;;5.80;2.58;;;29.30;99.90;;;;;;5266710;28;20027;-72
2022/07/17 12:37:20;;;;;;;7.88;2.88;;;29.00;99.90;;;;;;5267962;28;20043;-71
2022/07/17 12:39:51;;;;;;;5.03;2.67;;;29.20;99.90;;;;;;5268029;28;20020;-72
2022/07/17 12:42:22;;;;;;;6.13;2.60;;;28.40;99.90;;;;;;5266721;28;20028;-71
2022/07/17 12:44:52;;;;;;;5.60;3.10;;;28.60;99.90;;;;;;5268098;28;20030;-76
2022/07/17 12:47:23;;;;;;;6.22;3.40;;;28.20;99.90;;;;;;5266712;28;20499;-72
2022/07/17 12:49:54;;;;;;;5.68;3.20;;;28.10;99.90;;;;;;5267986;28;20047;-72
2022/07/17 12:52:25;;;;;;;5.32;2.95;;;29.10;99.90;;;;;;5267938;28;20098;-71
2022/07/17 12:54:56;;;;;;;5.80;2.65;;;28.40;99.90;;;;;;5267862;28;20118;-72
2022/07/17 12:57:26;;;;;;;8.38;2.78;;;28.40;99.90;;;;;;5267513;28;20032;-71
2022/07/17 12:59:57;;;;;;;9.80;2.78;;;28.50;99.90;;;;;;5267603;28;20038;-78
2022/07/17 13:02:28;;;;;;;5.28;2.78;;;29.30;99.90;;;;;;5267898;28;20127;-72
2022/07/17 13:04:59;;;;;;;4.43;2.88;;;28.90;99.90;;;;;;5270800;28;20016;-72
2022/07/17 13:07:29;;;;;;;5.85;2.78;;;28.70;99.90;;;;;;5271967;28;20467;-71
2022/07/17 13:10:00;;;;;;;7.18;2.42;;;28.80;99.90;;;;;;5271934;28;20028;-72
2022/07/17 13:12:31;;;;;;;5.10;2.60;;;28.30;99.90;;;;;;5271851;28;20434;-72